Time;durP1;ratioP1;P1;durP2;ratioP2;P2;SDS_P1;SDS_P2;PMS_P1;PMS_P2;Temp;Humidity;BMP_temperature;BMP_pressure;BME280_temperature;BME280_humidity;BME280_pressure;Samples;Min_cycle;Max_cycle;Signal;HPM_P1;HPM_P2
2023/07/19 00:01:12;;;;;;;;;;;;;;;26.00;68.77;97054.95;588912;241;66562;-60
2023/07/19 00:03:40;;;;;;;;;;;;;;;26.00;68.84;97058.47;588919;241;63639;-61
2023/07/19 00:06:07;;;;;;;;;;;;;;;25.99;67.38;97053.37;588954;241;68789;-61
2023/07/19 00:08:37;;;;;;;;;;;;;;;25.99;68.55;97053.37;588923;241;68571;-61
2023/07/19 00:11:04;;;;;;;;;;;;;;;25.99;68.47;97056.85;588893;241;65063;-61
2023/07/19 00:13:32;;;;;;;;;;;;;;;25.98;67.87;97060.66;588919;241;66686;-61
2023/07/19 00:15:59;;;;;;;;;;;;;;;25.98;67.37;97062.55;588861;241;69081;-61
2023/07/19 00:18:27;;;;;;;;;;;;;;;25.99;67.93;97058.75;588924;241;65086;-61
2023/07/19 00:20:55;;;;;;;;;;;;;;;25.97;67.02;97053.66;588905;241;68859;-61
2023/07/19 00:23:22;;;;;;;;;;;;;;;25.98;68.19;97054.48;585585;239;68733;-61
2023/07/19 00:25:50;;;;;;;;;;;;;;;25.96;66.80;97049.38;584927;242;65150;-61
2023/07/19 00:28:17;;;;;;;;;;;;;;;25.97;66.82;97053.66;584928;242;66668;-61
2023/07/19 00:30:44;;;;;;;;;;;;;;;25.97;67.87;97050.17;584968;242;68670;-61
2023/07/19 00:33:12;;;;;;;;;;;;;;;25.96;68.03;97041.30;584942;242;65098;-61
2023/07/19 00:35:43;;;;;;;;;;;;;;;25.95;66.88;97039.72;584938;242;68514;-61
2023/07/19 00:38:14;;;;;;;;;;;;;;;25.95;66.52;97049.70;584991;241;47168;-59
2023/07/19 00:40:42;;;;;;;;;;;;;;;25.95;67.29;97047.80;584936;242;63532;-61
2023/07/19 00:43:11;;;;;;;;;;;;;;;25.96;67.77;97051.28;585014;239;68688;-61
2023/07/19 00:45:40;;;;;;;;;;;;;;;25.94;67.91;97040.80;584814;242;68766;-60
2023/07/19 00:48:07;;;;;;;;;;;;;;;25.93;67.49;97039.22;584809;241;64871;-60
2023/07/19 00:50:35;;;;;;;;;;;;;;;25.93;67.81;97038.43;584951;242;66683;-69
2023/07/19 00:53:03;;;;;;;;;;;;;;;25.93;68.26;97043.81;584961;242;66557;-69
2023/07/19 00:55:30;;;;;;;;;;;;;;;25.93;68.19;97033.83;585019;242;65241;-69
2023/07/19 00:57:58;;;;;;;;;;;;;;;25.93;67.42;97043.81;584996;242;66470;-69
2023/07/19 01:00:26;;;;;;;;;;;;;;;25.93;67.55;97046.50;584955;242;68885;-69
2023/07/19 01:02:54;;;;;;;;;;;;;;;25.91;65.97;97046.80;584938;242;65039;-68
2023/07/19 01:05:21;;;;;;;;;;;;;;;25.92;67.19;97048.41;584927;242;67191;-68
2023/07/19 01:07:49;;;;;;;;;;;;;;;25.91;66.42;97050.28;584999;242;69222;-69
2023/07/19 01:10:16;;;;;;;;;;;;;;;25.93;67.98;97055.38;584958;242;64862;-68
2023/07/19 01:12:44;;;;;;;;;;;;;;;25.93;68.41;97062.66;584956;242;66500;-68
2023/07/19 01:15:11;;;;;;;;;;;;;;;25.91;67.66;97063.74;584944;242;66529;-69
2023/07/19 01:17:39;;;;;;;;;;;;;;;25.91;67.46;97049.48;584970;242;65267;-68
2023/07/19 01:20:08;;;;;;;;;;;;;;;25.90;67.44;97043.31;584993;242;68931;-69
2023/07/19 01:22:36;;;;;;;;;;;;;;;25.91;67.57;97047.59;587009;240;68204;-69
2023/07/19 01:25:04;;;;;;;;;;;;;;;25.90;66.82;97043.31;588931;241;65778;-69
2023/07/19 01:27:31;;;;;;;;;;;;;;;25.90;67.38;97029.06;588934;241;68655;-68
2023/07/19 01:29:59;;;;;;;;;;;;;;;25.90;67.83;97026.37;588925;241;68527;-69
2023/07/19 01:32:28;;;;;;;;;;;;;;;25.90;68.02;97031.75;588952;241;65868;-69
2023/07/19 01:34:55;;;;;;;;;;;;;;;25.90;67.62;97029.85;588983;241;68335;-68
2023/07/19 01:37:23;;;;;;;;;;;;;;;25.89;66.90;97030.14;588955;241;65887;-68
2023/07/19 01:39:51;;;;;;;;;;;;;;;25.88;67.33;97034.73;588967;241;64846;-68
2023/07/19 01:42:18;;;;;;;;;;;;;;;25.88;67.12;97032.04;588934;241;66392;-68
2023/07/19 01:44:46;;;;;;;;;;;;;;;25.88;66.23;97031.25;588917;241;66410;-68
2023/07/19 01:47:13;;;;;;;;;;;;;;;25.88;66.66;97025.86;588998;241;62768;-69
2023/07/19 01:49:41;;;;;;;;;;;;;;;25.88;66.79;97017.79;588926;241;68492;-69
2023/07/19 01:52:09;;;;;;;;;;;;;;;25.87;67.36;97025.08;588921;241;69618;-68
2023/07/19 01:54:36;;;;;;;;;;;;;;;25.88;67.89;97026.66;588915;241;65026;-69
2023/07/19 01:57:04;;;;;;;;;;;;;;;25.87;67.34;97021.59;588880;241;68857;-68
2023/07/19 01:59:32;;;;;;;;;;;;;;;25.86;66.78;97022.67;588987;241;66665;-69
2023/07/19 02:02:00;;;;;;;;;;;;;;;25.87;68.05;97024.28;588941;241;62755;-69
2023/07/19 02:04:27;;;;;;;;;;;;;;;25.85;66.10;97021.09;588930;241;68941;-69
2023/07/19 02:06:56;;;;;;;;;;;;;;;25.86;67.38;97023.49;588922;241;67273;-68
2023/07/19 02:09:24;;;;;;;;;;;;;;;25.84;66.21;97014.91;588894;241;62577;-68
2023/07/19 02:11:51;;;;;;;;;;;;;;;25.85;66.25;97021.09;588993;241;66466;-68
2023/07/19 02:14:19;;;;;;;;;;;;;;;25.87;67.69;97021.59;588933;241;66560;-68
2023/07/19 02:16:46;;;;;;;;;;;;;;;25.84;66.27;97022.20;588928;241;66013;-68
2023/07/19 02:19:14;;;;;;;;;;;;;;;25.84;66.08;97025.69;588887;241;68854;-68
2023/07/19 02:21:42;;;;;;;;;;;;;;;25.84;66.68;97019.50;588389;239;66627;-68
2023/07/19 02:24:09;;;;;;;;;;;;;;;25.83;66.92;97018.69;584948;242;65053;-68
2023/07/19 02:26:36;;;;;;;;;;;;;;;25.83;66.19;97029.45;585004;242;68666;-68
2023/07/19 02:29:06;;;;;;;;;;;;;;;25.84;67.77;97025.69;584957;242;69357;-60
2023/07/19 02:31:35;;;;;;;;;;;;;;;25.84;67.48;97032.97;583077;240;63707;-60
2023/07/19 02:34:04;;;;;;;;;;;;;;;25.83;66.01;97024.07;581526;239;68667;-60
2023/07/19 02:36:34;;;;;;;;;;;;;;;25.83;67.02;97024.07;582399;241;68479;-60
2023/07/19 02:39:03;;;;;;;;;;;;;;;25.83;66.72;97020.55;582485;240;63092;-60
2023/07/19 02:41:31;;;;;;;;;;;;;;;25.81;66.00;97026.26;582433;241;68875;-60
2023/07/19 02:43:59;;;;;;;;;;;;;;;25.82;66.97;97027.84;582536;241;66922;-60
2023/07/19 02:46:26;;;;;;;;;;;;;;;25.81;65.81;97023.56;582463;240;62725;-60
2023/07/19 02:48:54;;;;;;;;;;;;;;;25.82;65.64;97021.67;582898;240;66713;-60
2023/07/19 02:51:21;;;;;;;;;;;;;;;25.82;67.21;97022.45;582475;241;68704;-60
2023/07/19 02:53:49;;;;;;;;;;;;;;;25.81;65.51;97025.44;582624;239;62888;-68
2023/07/19 02:56:17;;;;;;;;;;;;;;;25.80;66.46;97021.95;582511;239;68797;-68
2023/07/19 02:58:44;;;;;;;;;;;;;;;25.80;66.09;97021.16;582420;241;68711;-68
2023/07/19 03:01:17;;;;;;;;;;;;;;;25.80;66.57;97019.27;582479;240;64846;-68
2023/07/19 03:03:41;;;;;;;;;;;;;;;25.79;65.85;97023.06;582289;240;66511;-60
2023/07/19 03:06:12;;;;;;;;;;;;;;;25.80;66.55;97021.16;582391;240;68887;-60
2023/07/19 03:08:39;;;;;;;;;;;;;;;25.78;65.11;97021.48;582321;243;66189;-68
2023/07/19 03:11:08;;;;;;;;;;;;;;;25.79;65.64;97022.27;582539;240;69758;-68
2023/07/19 03:13:36;;;;;;;;;;;;;;;25.77;64.76;97014.48;582576;239;66571;-69
2023/07/19 03:16:05;;;;;;;;;;;;;;;25.78;66.04;97016.09;582492;241;62943;-69
2023/07/19 03:18:32;;;;;;;;;;;;;;;25.77;64.75;97013.70;582671;239;68897;-69
2023/07/19 03:21:01;;;;;;;;;;;;;;;25.77;66.06;97014.48;582430;241;68690;-69
2023/07/19 03:23:34;;;;;;;;;;;;;;;25.77;64.58;97014.48;582470;241;66150;-69
2023/07/19 03:25:58;;;;;;;;;;;;;;;25.77;65.01;97013.70;582393;240;68888;-69
2023/07/19 03:28:28;;;;;;;;;;;;;;;25.76;65.30;97007.52;582693;239;69750;-69
2023/07/19 03:30:56;;;;;;;;;;;;;;;25.76;64.67;97010.21;582830;240;61716;-69
2023/07/19 03:33:25;;;;;;;;;;;;;;;25.77;66.02;97001.03;582463;241;66777;-69
2023/07/19 03:35:53;;;;;;;;;;;;;;;25.76;65.56;97002.14;582877;239;69097;-69
2023/07/19 03:38:21;;;;;;;;;;;;;;;25.75;64.13;97008.60;582969;241;65297;-69
2023/07/19 03:40:49;;;;;;;;;;;;;;;25.76;66.46;96995.97;582471;241;66116;-69
2023/07/19 03:43:17;;;;;;;;;;;;;;;25.75;65.72;97000.52;582555;241;66798;-69
2023/07/19 03:45:45;;;;;;;;;;;;;;;25.76;65.81;97001.34;582584;239;62883;-69
2023/07/19 03:48:12;;;;;;;;;;;;;;;25.75;65.76;97005.91;582362;239;69327;-69
2023/07/19 03:50:40;;;;;;;;;;;;;;;25.75;65.30;97005.12;582840;240;69142;-69
2023/07/19 03:53:09;;;;;;;;;;;;;;;25.75;66.57;97011.30;582590;239;63810;-69
2023/07/19 03:55:36;;;;;;;;;;;;;;;25.75;66.38;97005.91;582531;241;68800;-69
2023/07/19 03:58:04;;;;;;;;;;;;;;;25.74;65.89;97001.64;582357;241;66876;-69
2023/07/19 04:00:32;;;;;;;;;;;;;;;25.74;66.78;97007.02;582530;240;65071;-69
2023/07/19 04:02:59;;;;;;;;;;;;;;;25.74;66.41;97009.71;582629;241;67507;-69
2023/07/19 04:05:26;;;;;;;;;;;;;;;25.74;65.90;97016.99;582655;239;66596;-69
2023/07/19 04:07:55;;;;;;;;;;;;;;;25.74;66.80;97031.25;582390;241;65462;-69
2023/07/19 04:10:22;;;;;;;;;;;;;;;25.74;67.78;97020.48;582378;241;69587;-69
2023/07/19 04:12:50;;;;;;;;;;;;;;;25.73;66.14;97016.20;582563;239;68778;-69
2023/07/19 04:15:17;;;;;;;;;;;;;;;25.73;66.43;97020.77;582453;241;64904;-69
2023/07/19 04:17:47;;;;;;;;;;;;;;;25.73;65.69;97016.20;582601;240;66389;-69
2023/07/19 04:20:14;;;;;;;;;;;;;;;25.72;66.06;97019.97;582357;243;66482;-68
2023/07/19 04:22:42;;;;;;;;;;;;;;;25.72;65.27;97016.49;588141;237;65141;-68
2023/07/19 04:25:10;;;;;;;;;;;;;;;25.72;66.14;97017.28;585846;239;70521;-68
2023/07/19 04:27:37;;;;;;;;;;;;;;;25.72;66.33;97009.20;588945;241;68620;-68
2023/07/19 04:30:06;;;;;;;;;;;;;;;25.72;66.68;97013.80;588931;241;65614;-69
2023/07/19 04:32:33;;;;;;;;;;;;;;;25.72;67.12;97008.42;588958;241;69565;-61
2023/07/19 04:35:01;;;;;;;;;;;;;;;25.72;67.01;97006.52;588979;241;68706;-60
2023/07/19 04:37:28;;;;;;;;;;;;;;;25.71;67.54;96996.86;588901;237;62762;-60
2023/07/19 04:39:56;;;;;;;;;;;;;;;25.71;67.04;96994.17;588964;241;66687;-60
2023/07/19 04:42:24;;;;;;;;;;;;;;;25.71;66.42;96993.38;588935;241;69285;-60
2023/07/19 04:44:52;;;;;;;;;;;;;;;25.71;66.66;96990.69;588935;241;64461;-60
2023/07/19 04:47:21;;;;;;;;;;;;;;;25.71;66.92;96988.78;588970;241;68725;-61
2023/07/19 04:49:48;;;;;;;;;;;;;;;25.72;66.97;96989.58;588931;241;68747;-60
2023/07/19 04:52:16;;;;;;;;;;;;;;;25.71;66.72;96988.78;588916;241;65690;-61
2023/07/19 04:54:47;;;;;;;;;;;;;;;25.69;65.66;96983.69;588951;241;69668;-60
2023/07/19 04:57:13;;;;;;;;;;;;;;;25.70;65.52;96987.20;588882;240;66341;-60
2023/07/19 04:59:41;;;;;;;;;;;;;;;25.69;66.03;96985.59;588806;241;65054;-61
2023/07/19 05:02:10;;;;;;;;;;;;;;;25.71;66.05;96987.99;588976;241;66630;-61
2023/07/19 05:04:37;;;;;;;;;;;;;;;25.70;67.40;96989.90;588682;241;68649;-61
2023/07/19 05:07:05;;;;;;;;;;;;;;;25.69;67.09;96991.77;588815;241;62205;-61
2023/07/19 05:09:34;;;;;;;;;;;;;;;25.70;67.73;96992.59;588931;241;69211;-61
2023/07/19 05:12:02;;;;;;;;;;;;;;;25.69;67.42;96985.59;588910;241;69383;-61
2023/07/19 05:14:30;;;;;;;;;;;;;;;25.68;67.68;96986.70;588959;241;63571;-61
2023/07/19 05:16:58;;;;;;;;;;;;;;;25.68;67.98;96984.02;588925;237;66354;-61
2023/07/19 05:19:25;;;;;;;;;;;;;;;25.67;67.59;96980.53;588920;241;69036;-61
2023/07/19 05:21:53;;;;;;;;;;;;;;;25.66;66.13;96980.81;588834;239;62658;-61
2023/07/19 05:24:20;;;;;;;;;;;;;;;25.66;66.38;96978.91;589236;237;66434;-61
2023/07/19 05:26:48;;;;;;;;;;;;;;;25.67;66.68;96985.09;588969;241;69038;-61
2023/07/19 05:29:16;;;;;;;;;;;;;;;25.67;67.44;96977.84;588964;241;63029;-61
2023/07/19 05:31:43;;;;;;;;;;;;;;;25.68;68.07;96971.34;588932;241;68298;-61
2023/07/19 05:34:11;;;;;;;;;;;;;;;25.67;68.18;96969.77;588953;241;66327;-61
2023/07/19 05:36:38;;;;;;;;;;;;;;;25.67;68.03;96961.69;588914;241;62915;-61
2023/07/19 05:39:05;;;;;;;;;;;;;;;25.66;68.04;96960.08;589004;241;68848;-61
2023/07/19 05:41:33;;;;;;;;;;;;;;;25.66;68.67;96962.77;588931;241;66303;-61
2023/07/19 05:44:00;;;;;;;;;;;;;;;25.67;68.69;96963.56;588942;241;62913;-61
2023/07/19 05:46:28;;;;;;;;;;;;;;;25.66;67.84;96960.08;588947;241;68360;-61
2023/07/19 05:48:55;;;;;;;;;;;;;;;25.67;67.60;96955.48;588870;241;68478;-61
2023/07/19 05:51:23;;;;;;;;;;;;;;;25.67;68.00;96960.87;586823;241;62928;-61
2023/07/19 05:53:50;;;;;;;;;;;;;;;25.66;67.95;96956.59;580619;243;66638;-60
2023/07/19 05:56:18;;;;;;;;;;;;;;;25.66;67.86;96959.28;581352;243;68645;-62
2023/07/19 05:58:46;;;;;;;;;;;;;;;25.66;66.63;96962.77;580551;243;63040;-64
2023/07/19 06:01:17;;;;;;;;;;;;;;;25.66;68.46;96953.91;582343;243;66711;-61
2023/07/19 06:03:42;;;;;;;;;;;;;;;25.66;67.47;96956.59;582295;243;66564;-61
2023/07/19 06:06:10;;;;;;;;;;;;;;;25.66;67.66;96962.77;582440;243;62818;-61
2023/07/19 06:08:37;;;;;;;;;;;;;;;25.66;67.76;96962.77;582351;243;68807;-61
2023/07/19 06:11:05;;;;;;;;;;;;;;;25.66;67.48;96961.98;581736;243;66406;-61
2023/07/19 06:13:32;;;;;;;;;;;;;;;25.65;68.20;96955.80;582290;243;65177;-61
2023/07/19 06:16:00;;;;;;;;;;;;;;;25.67;67.93;96955.48;582357;243;68714;-61
2023/07/19 06:18:27;;;;;;;;;;;;;;;25.68;68.85;96959.79;582582;243;68542;-61
2023/07/19 06:20:55;;;;;;;;;;;;;;;25.67;67.68;96953.62;582475;243;63111;-61
2023/07/19 06:23:23;;;;;;;;;;;;;;;25.68;68.09;96947.13;582310;242;66739;-60
2023/07/19 06:25:50;;;;;;;;;;;;;;;25.68;67.87;96947.13;582450;243;66880;-62
2023/07/19 06:28:18;;;;;;;;;;;;;;;25.70;69.92;96946.83;582581;243;63246;-60
2023/07/19 06:30:45;;;;;;;;;;;;;;;25.70;65.52;96933.38;582586;243;68864;-60
2023/07/19 06:33:13;;;;;;;;;;;;;;;25.73;67.69;96927.38;582525;243;68483;-60
2023/07/19 06:35:40;;;;;;;;;;;;;;;25.73;67.11;96923.88;582579;243;65048;-63
2023/07/19 06:38:08;;;;;;;;;;;;;;;25.72;63.99;96919.59;582517;243;69017;-62
2023/07/19 06:40:35;;;;;;;;;;;;;;;25.76;62.29;96909.83;582502;243;68765;-63
2023/07/19 06:43:04;;;;;;;;;;;;;;;25.78;62.63;96913.81;582654;243;65137;-62
2023/07/19 06:45:31;;;;;;;;;;;;;;;25.80;63.57;96914.28;582483;243;68465;-62
2023/07/19 06:47:59;;;;;;;;;;;;;;;25.80;61.43;96903.52;582449;243;68691;-64
2023/07/19 06:50:26;;;;;;;;;;;;;;;25.81;60.98;96897.05;582525;243;65033;-61
2023/07/19 06:52:54;;;;;;;;;;;;;;;25.84;60.59;96899.16;582525;243;66725;-61
2023/07/19 06:55:23;;;;;;;;;;;;;;;25.84;60.17;96893.77;582503;243;66624;-61
2023/07/19 06:57:50;;;;;;;;;;;;;;;25.85;61.50;96889.17;582566;243;62788;-64
2023/07/19 07:00:18;;;;;;;;;;;;;;;25.85;60.67;96881.89;582563;243;66354;-64
2023/07/19 07:02:46;;;;;;;;;;;;;;;25.86;60.62;96883.50;582508;243;68763;-64
2023/07/19 07:05:14;;;;;;;;;;;;;;;25.89;60.88;96877.50;582552;243;62712;-62
2023/07/19 07:07:41;;;;;;;;;;;;;;;25.91;61.17;96890.64;582571;243;66574;-63
2023/07/19 07:10:09;;;;;;;;;;;;;;;25.91;61.81;96883.35;582573;243;66669;-62
2023/07/19 07:12:37;;;;;;;;;;;;;;;25.92;61.24;96881.48;582516;243;65165;-62
2023/07/19 07:15:05;;;;;;;;;;;;;;;25.93;61.09;96883.06;582506;243;68878;-63
2023/07/19 07:17:32;;;;;;;;;;;;;;;25.93;61.46;96879.58;582537;243;68643;-62
2023/07/19 07:20:00;;;;;;;;;;;;;;;25.93;61.08;96880.36;582508;243;64996;-64
2023/07/19 07:22:27;;;;;;;;;;;;;;;25.95;61.55;96885.45;582511;242;68819;-64
2023/07/19 07:24:55;;;;;;;;;;;;;;;25.96;61.08;96887.04;582552;243;68889;-65
2023/07/19 07:27:23;;;;;;;;;;;;;;;25.96;61.11;96882.44;582511;243;65116;-65
2023/07/19 07:29:51;;;;;;;;;;;;;;;25.98;60.92;96879.45;582508;243;66623;-65
2023/07/19 07:32:18;;;;;;;;;;;;;;;25.98;60.93;96871.38;582536;241;68471;-64
2023/07/19 07:34:46;;;;;;;;;;;;;;;25.98;61.09;96874.86;582576;243;63890;-66
2023/07/19 07:37:13;;;;;;;;;;;;;;;26.02;61.55;96872.34;582525;240;66627;-64
2023/07/19 07:39:41;;;;;;;;;;;;;;;26.03;61.43;96865.88;582477;243;66673;-64
2023/07/19 07:42:09;;;;;;;;;;;;;;;26.03;61.06;96860.48;582539;243;62750;-64
2023/07/19 07:44:36;;;;;;;;;;;;;;;26.05;60.64;96860.95;582500;243;68819;-63
2023/07/19 07:47:04;;;;;;;;;;;;;;;26.04;60.42;96860.16;582539;243;68811;-64
2023/07/19 07:49:32;;;;;;;;;;;;;;;26.06;60.55;96855.27;582527;243;64962;-64
2023/07/19 07:51:59;;;;;;;;;;;;;;;26.06;60.20;96855.27;582494;243;68642;-64
2023/07/19 07:54:27;;;;;;;;;;;;;;;26.07;60.03;96851.47;582457;243;68391;-64
2023/07/19 07:56:54;;;;;;;;;;;;;;;26.09;60.03;96854.66;582549;243;64959;-64
2023/07/19 07:59:22;;;;;;;;;;;;;;;26.10;60.12;96848.16;582520;243;66145;-63
2023/07/19 08:01:49;;;;;;;;;;;;;;;26.12;59.70;96843.27;582554;243;66579;-63
2023/07/19 08:04:17;;;;;;;;;;;;;;;26.13;59.71;96846.74;582533;243;62688;-64
2023/07/19 08:06:44;;;;;;;;;;;;;;;26.14;59.99;96840.27;582495;243;66956;-68
2023/07/19 08:09:12;;;;;;;;;;;;;;;26.16;60.89;96843.42;582581;243;68651;-68
2023/07/19 08:11:39;;;;;;;;;;;;;;;26.16;59.71;96843.42;582462;243;62807;-68
2023/07/19 08:14:07;;;;;;;;;;;;;;;26.20;58.97;96846.32;582543;243;68820;-67
2023/07/19 08:16:36;;;;;;;;;;;;;;;26.17;58.70;96842.34;582541;243;66363;-64
2023/07/19 08:19:04;;;;;;;;;;;;;;;26.20;58.53;96835.55;582460;243;65482;-64
2023/07/19 08:21:31;;;;;;;;;;;;;;;26.18;58.08;96843.92;582459;242;68713;-63
2023/07/19 08:23:59;;;;;;;;;;;;;;;26.18;58.15;96838.53;582520;243;68770;-63
2023/07/19 08:26:26;;;;;;;;;;;;;;;26.19;57.95;96832.06;582502;243;65084;-64
2023/07/19 08:28:53;;;;;;;;;;;;;;;26.18;58.06;96833.15;582452;243;66666;-60
2023/07/19 08:31:23;;;;;;;;;;;;;;;26.19;57.89;96832.06;582503;243;66574;-61
2023/07/19 08:33:50;;;;;;;;;;;;;;;26.19;58.03;96840.14;582497;243;65064;-62
2023/07/19 08:36:18;;;;;;;;;;;;;;;26.22;58.61;96836.83;582536;243;68828;-62
2023/07/19 08:38:47;;;;;;;;;;;;;;;26.28;58.58;96834.80;582585;243;68704;-62
2023/07/19 08:41:16;;;;;;;;;;;;;;;26.30;58.86;96837.95;582399;243;65154;-62
2023/07/19 08:43:45;;;;;;;;;;;;;;;26.32;58.30;96841.14;582477;242;66627;-63
2023/07/19 08:46:15;;;;;;;;;;;;;;;26.33;58.57;96837.36;582551;243;68466;-62
2023/07/19 08:48:44;;;;;;;;;;;;;;;26.35;58.21;96832.44;582495;243;63018;-62
2023/07/19 08:51:12;;;;;;;;;;;;;;;26.36;57.85;96836.73;582552;243;66624;-70
2023/07/19 08:53:40;;;;;;;;;;;;;;;26.37;57.55;96841.01;577648;243;66947;-70
2023/07/19 08:56:10;;;;;;;;;;;;;;;26.38;57.25;96839.10;576126;246;65177;-70
2023/07/19 08:58:39;;;;;;;;;;;;;;;26.38;56.53;96845.28;576162;246;68835;-68
2023/07/19 09:01:07;;;;;;;;;;;;;;;26.37;56.49;96837.52;576156;246;68761;-64
2023/07/19 09:03:35;;;;;;;;;;;;;;;26.37;56.59;96841.01;576121;246;66159;-64
2023/07/19 09:06:08;;;;;;;;;;;;;;;26.33;55.55;96840.84;576221;246;66647;-64
2023/07/19 09:08:39;;;;;;;;;;;;;;;26.29;55.75;96839.86;570723;246;69520;-63
2023/07/19 09:11:07;;;;;;;;;;;;;;;26.27;56.05;96834.00;576173;246;63195;-64
2023/07/19 09:13:36;;;;;;;;;;;;;;;26.26;56.24;96827.02;576180;246;68604;-63
2023/07/19 09:16:04;;;;;;;;;;;;;;;26.23;56.06;96816.86;576177;246;69528;-63
2023/07/19 09:18:38;;;;;;;;;;;;;;;26.23;56.08;96816.06;576201;246;65102;-62
2023/07/19 09:21:05;;;;;;;;;;;;;;;26.22;56.17;96815.28;576247;246;66862;-62
2023/07/19 09:23:35;;;;;;;;;;;;;;;26.21;56.37;96819.06;572899;245;66638;-62
2023/07/19 09:26:04;;;;;;;;;;;;;;;26.20;56.40;96822.87;572422;245;65139;-69
2023/07/19 09:28:33;;;;;;;;;;;;;;;26.23;56.99;96816.86;572317;245;66761;-62
2023/07/19 09:31:02;;;;;;;;;;;;;;;26.28;56.84;96819.42;572660;245;68852;-60
2023/07/19 09:33:30;;;;;;;;;;;;;;;26.32;56.72;96814.98;572955;245;65062;-61
2023/07/19 09:35:58;;;;;;;;;;;;;;;26.34;57.06;96812.78;573185;245;66388;-62
2023/07/19 09:38:26;;;;;;;;;;;;;;;26.37;57.28;96815.97;572961;245;68456;-62
2023/07/19 09:40:56;;;;;;;;;;;;;;;26.37;56.77;96816.76;572968;245;62834;-62
2023/07/19 09:43:24;;;;;;;;;;;;;;;26.40;56.36;96818.04;572603;245;66361;-61
2023/07/19 09:45:51;;;;;;;;;;;;;;;26.39;56.26;96809.17;572981;245;66442;-62
2023/07/19 09:48:27;;;;;;;;;;;;;;;26.41;55.72;96806.97;572791;245;65128;-61
2023/07/19 09:50:50;;;;;;;;;;;;;;;26.43;55.55;96812.02;572723;245;68477;-61
2023/07/19 09:53:19;;;;;;;;;;;;;;;26.41;55.58;96806.14;572707;245;66538;-61
2023/07/19 09:55:48;;;;;;;;;;;;;;;26.43;56.00;96804.73;572754;245;63849;-61
2023/07/19 09:58:16;;;;;;;;;;;;;;;26.45;55.37;96793.66;572644;245;68603;-61
2023/07/19 10:00:44;;;;;;;;;;;;;;;26.44;55.17;96797.47;578823;242;68587;-61
2023/07/19 10:03:13;;;;;;;;;;;;;;;26.46;55.25;96800.63;578826;245;65170;-61
2023/07/19 10:05:42;;;;;;;;;;;;;;;26.48;54.99;96793.03;578645;244;68830;-61
2023/07/19 10:08:11;;;;;;;;;;;;;;;26.48;55.19;96790.34;578796;245;69130;-61
2023/07/19 10:10:40;;;;;;;;;;;;;;;26.48;54.67;96788.42;578787;245;63067;-62
2023/07/19 10:13:08;;;;;;;;;;;;;;;26.49;54.38;96786.52;578780;245;68809;-61
2023/07/19 10:15:36;;;;;;;;;;;;;;;26.49;53.97;96776.56;578814;245;68519;-61
2023/07/19 10:18:05;;;;;;;;;;;;;;;26.48;54.17;96768.78;578834;244;63141;-61
2023/07/19 10:20:36;;;;;;;;;;;;;;;26.50;54.16;96772.75;578567;245;66615;-61
2023/07/19 10:23:06;;;;;;;;;;;;;;;26.51;53.69;96770.88;574292;243;66725;-61
2023/07/19 10:25:35;;;;;;;;;;;;;;;26.53;53.73;96774.05;572339;247;65710;-61
2023/07/19 10:28:09;;;;;;;;;;;;;;;26.52;54.12;96770.57;570763;247;68596;-59
2023/07/19 10:30:45;;;;;;;;;;;;;;;26.54;54.22;96775.63;572426;248;68681;-59
2023/07/19 10:33:13;;;;;;;;;;;;;;;26.55;53.91;96772.64;572301;247;63070;-59
2023/07/19 10:35:41;;;;;;;;;;;;;;;26.56;53.93;96774.22;572277;248;69041;-59
2023/07/19 10:38:15;;;;;;;;;;;;;;;26.58;53.76;96767.73;572333;248;66685;-59
2023/07/19 10:40:46;;;;;;;;;;;;;;;26.55;53.99;96769.94;572448;245;62935;-60
2023/07/19 10:43:14;;;;;;;;;;;;;;;26.55;53.92;96769.16;572339;247;68806;-58
2023/07/19 10:45:42;;;;;;;;;;;;;;;26.58;54.42;96763.14;572293;247;68678;-60
2023/07/19 10:48:10;;;;;;;;;;;;;;;26.61;54.13;96767.11;572390;247;62794;-59
2023/07/19 10:50:38;;;;;;;;;;;;;;;26.61;53.94;96770.59;572396;247;68794;-60
2023/07/19 10:53:10;;;;;;;;;;;;;;;26.63;54.60;96768.38;572274;246;68343;-60
2023/07/19 10:55:39;;;;;;;;;;;;;;;26.64;54.78;96766.48;572387;245;45871;-59
2023/07/19 10:58:07;;;;;;;;;;;;;;;26.66;54.40;96767.75;572240;246;66618;-59
2023/07/19 11:00:43;;;;;;;;;;;;;;;26.67;54.09;96761.24;572292;248;68517;-59
2023/07/19 11:03:08;;;;;;;;;;;;;;;26.68;53.69;96756.64;572115;247;62962;-59
2023/07/19 11:05:38;;;;;;;;;;;;;;;26.71;53.78;96764.91;572299;247;68657;-59
2023/07/19 11:08:05;;;;;;;;;;;;;;;26.71;53.42;96759.52;572377;247;68489;-59
2023/07/19 11:10:33;;;;;;;;;;;;;;;26.72;53.42;96757.61;572294;247;63194;-59
2023/07/19 11:13:00;;;;;;;;;;;;;;;26.74;52.88;96747.31;572330;246;66683;-60
2023/07/19 11:15:28;;;;;;;;;;;;;;;26.73;53.08;96748.41;572306;246;66573;-66
2023/07/19 11:17:58;;;;;;;;;;;;;;;26.73;53.12;96746.50;572360;247;65108;-66
2023/07/19 11:20:30;;;;;;;;;;;;;;;26.74;53.17;96750.80;572307;247;47097;-65
2023/07/19 11:23:09;;;;;;;;;;;;;;;26.76;53.48;96739.69;573730;243;69132;-65
2023/07/19 11:25:34;;;;;;;;;;;;;;;26.78;53.13;96734.78;574978;243;63117;-64
2023/07/19 11:28:01;;;;;;;;;;;;;;;26.76;53.24;96731.60;578303;243;66215;-64
2023/07/19 11:30:38;;;;;;;;;;;;;;;26.74;53.27;96734.62;578181;241;68689;-63
2023/07/19 11:33:06;;;;;;;;;;;;;;;26.73;53.37;96733.02;574944;246;65068;-64
2023/07/19 11:35:35;;;;;;;;;;;;;;;26.75;53.44;96719.23;575024;246;66602;-64
2023/07/19 11:38:02;;;;;;;;;;;;;;;26.73;53.65;96735.72;574890;246;66582;-65
2023/07/19 11:40:30;;;;;;;;;;;;;;;26.75;53.59;96730.81;575033;246;63088;-64
2023/07/19 11:42:58;;;;;;;;;;;;;;;26.74;53.58;96728.45;575033;246;68329;-64
2023/07/19 11:45:27;;;;;;;;;;;;;;;26.74;53.25;96729.23;574900;244;66878;-64
2023/07/19 11:48:01;;;;;;;;;;;;;;;26.73;53.32;96730.33;575046;246;63052;-64
2023/07/19 11:50:28;;;;;;;;;;;;;;;26.74;53.92;96726.55;575042;246;68937;-64
2023/07/19 11:52:57;;;;;;;;;;;;;;;26.72;53.97;96715.27;576143;243;68876;-63
2023/07/19 11:55:25;;;;;;;;;;;;;;;26.74;54.17;96718.45;580900;243;63044;-63
2023/07/19 11:57:54;;;;;;;;;;;;;;;26.74;54.12;96715.76;580938;243;68857;-64
2023/07/19 12:00:23;;;;;;;;;;;;;;;26.74;54.54;96715.76;580881;244;68633;-63
2023/07/19 12:02:52;;;;;;;;;;;;;;;26.74;54.35;96713.06;578765;243;65107;-64
2023/07/19 12:05:20;;;;;;;;;;;;;;;26.75;54.30;96714.64;581528;243;66677;-65
2023/07/19 12:07:54;;;;;;;;;;;;;;;26.77;54.15;96711.64;581471;243;69828;-65
2023/07/19 12:10:18;;;;;;;;;;;;;;;26.76;53.35;96712.73;581390;243;65068;-64
2023/07/19 12:12:53;;;;;;;;;;;;;;;26.78;52.56;96713.22;578949;243;68955;-64
2023/07/19 12:15:16;;;;;;;;;;;;;;;26.75;53.08;96714.64;577298;243;66781;-63
2023/07/19 12:17:46;;;;;;;;;;;;;;;26.76;53.38;96713.55;577174;243;64976;-65
2023/07/19 12:20:14;;;;;;;;;;;;;;;26.76;53.09;96713.55;581469;243;68704;-65
2023/07/19 12:22:43;;;;;;;;;;;;;;;26.76;53.50;96710.85;585227;240;66607;-66
2023/07/19 12:25:10;;;;;;;;;;;;;;;26.75;53.57;96714.64;588485;241;65078;-65
2023/07/19 12:27:39;;;;;;;;;;;;;;;26.76;53.47;96713.55;588896;241;68904;-64
2023/07/19 12:30:09;;;;;;;;;;;;;;;26.76;53.41;96710.85;588816;241;68427;-64
2023/07/19 12:32:38;;;;;;;;;;;;;;;26.76;53.22;96710.85;588855;241;63719;-64
2023/07/19 12:35:05;;;;;;;;;;;;;;;26.77;52.95;96698.16;588833;241;68820;-64
2023/07/19 12:37:36;;;;;;;;;;;;;;;26.77;52.72;96704.34;588824;241;68805;-64
2023/07/19 12:40:08;;;;;;;;;;;;;;;26.77;52.78;96703.55;588955;241;63011;-63
2023/07/19 12:42:36;;;;;;;;;;;;;;;26.78;53.08;96703.22;588869;241;68811;-63
2023/07/19 12:45:09;;;;;;;;;;;;;;;26.77;52.73;96696.25;588731;241;68854;-63
2023/07/19 12:47:33;;;;;;;;;;;;;;;26.77;52.69;96698.16;588779;240;65037;-64
2023/07/19 12:50:01;;;;;;;;;;;;;;;26.78;53.08;96695.13;588835;241;66342;-64
2023/07/19 12:52:29;;;;;;;;;;;;;;;26.79;53.33;96698.61;588431;240;68690;-64